SBOSBO POS / TTPP
Speedbird OnlineSpeedbird Online POS / TTPP

Piarco International Airport
09:12 25.1°C

Location Port-of-spain, Trinidad and Tobago
Latitude: 10.595399856567383
Longitude: -61.33720016479492
Web Wikipedia
Altitude 18 Meter / 58 Feet
Distance 7,133 KM / 4,432 Miles
from London.
Time Zone UTC -4 hours (America/Port_of_Spain)
Codes IATA: POS
ICAO: TTPP
Currency £1 equals TTD 8.39
Runways
RunwayLength (m)Surface
103200Asphalt
283200Asphalt
Radio
TypeDescriptionFrequency
ACCACC123.7
APPAPP119
ATISATIS126.7
GNDGND121.9
MISCAPRON121.75
RDORDO552.6
TWRTWR118.1
Live ATC
METAR TTPP 311300Z 00000KT 9999 VCSH FEW016 25/21 Q1015 NOSIG RMK VCSH N SE W
TAF TAF TTPP 311000Z 3112/0112 08010KT 9999 FEW016 BKN038 FM312000Z 09008KT 9999 FEW018
Weather As Of 31 Jan 2023 09:12
Description Clear sky
Wind 9 km/h from North-East (35°)
Cloud Cover 4%
Precipitation Rain: none, Snow: none
Sunrise 06:28
Sunset 18:08
Lounges VIP Flyers Club, Main Terminal
Rotations During the last 90 days there were
54 flights from UVF
51 flights to UVF



Support Speedbird Online

© 2017-2023 Speedbird Online